createdAt,value
2023-02-27T00:01:36.735Z,83.80
2023-02-27T00:04:03.220Z,84.17
2023-02-27T00:06:29.558Z,84.00
2023-02-27T00:08:56.006Z,84.05
2023-02-27T00:11:22.351Z,84.62
2023-02-27T00:13:48.660Z,84.49
2023-02-27T00:16:15.030Z,84.77
2023-02-27T00:18:41.630Z,84.33
2023-02-27T00:21:08.037Z,84.96
2023-02-27T00:23:34.442Z,85.24
2023-02-27T00:26:00.894Z,85.15
2023-02-27T00:28:28.373Z,85.83
2023-02-27T00:30:54.829Z,85.17
2023-02-27T00:33:21.706Z,85.79
2023-02-27T00:35:58.773Z,85.56
2023-02-27T00:38:25.752Z,85.34
2023-02-27T00:40:52.330Z,85.55
2023-02-27T00:43:18.647Z,85.48
2023-02-27T00:45:45.118Z,85.35
2023-02-27T00:48:11.522Z,85.48
2023-02-27T00:50:38.118Z,85.89
2023-02-27T00:53:04.684Z,87.03
2023-02-27T00:55:31.193Z,86.48
2023-02-27T00:57:57.542Z,86.25
2023-02-27T01:00:24.037Z,86.32
2023-02-27T01:02:50.387Z,87.07
2023-02-27T01:05:16.798Z,86.84
2023-02-27T01:07:43.183Z,87.35
2023-02-27T01:10:10.754Z,87.04
2023-02-27T01:12:37.199Z,86.43
2023-02-27T01:15:05.543Z,86.15
2023-02-27T01:17:32.669Z,86.82
2023-02-27T01:19:59.163Z,86.85
2023-02-27T01:22:25.657Z,86.70
2023-02-27T01:24:52.067Z,86.97
2023-02-27T01:27:18.509Z,87.46
2023-02-27T01:29:44.871Z,86.86
2023-02-27T01:32:11.504Z,86.71
2023-02-27T01:34:37.856Z,87.61
2023-02-27T01:37:04.177Z,87.40
2023-02-27T01:39:30.595Z,88.13
2023-02-27T01:41:56.906Z,87.82
2023-02-27T01:44:27.629Z,88.35
2023-02-27T01:46:53.969Z,88.67
2023-02-27T01:49:32.261Z,88.50
2023-02-27T01:52:03.357Z,88.87
2023-02-27T01:54:31.989Z,88.50
2023-02-27T01:56:58.517Z,88.10
2023-02-27T01:59:24.925Z,88.18
2023-02-27T02:01:51.418Z,87.47
2023-02-27T02:04:36.495Z,87.68
2023-02-27T02:07:09.356Z,87.16
2023-02-27T02:09:42.565Z,87.47
2023-02-27T02:12:11.629Z,88.30
2023-02-27T02:14:37.977Z,87.41
2023-02-27T02:17:30.497Z,87.92
2023-02-27T02:20:34.007Z,87.36
2023-02-27T02:23:15.484Z,88.56
2023-02-27T02:25:50.953Z,88.63
2023-02-27T02:28:39.122Z,88.32
2023-02-27T02:31:24.272Z,87.96
2023-02-27T02:34:08.145Z,88.61
2023-02-27T02:36:59.357Z,87.84
2023-02-27T02:39:31.764Z,88.09
2023-02-27T02:42:13.575Z,88.31
2023-02-27T02:44:55.209Z,89.41
2023-02-27T02:47:52.960Z,89.18
2023-02-27T02:50:27.102Z,89.08
2023-02-27T02:53:14.832Z,89.76
2023-02-27T02:55:44.106Z,88.92
2023-02-27T02:58:25.577Z,88.86
2023-02-27T03:01:10.869Z,89.33
2023-02-27T03:03:53.359Z,88.38
2023-02-27T03:06:33.432Z,88.83
2023-02-27T03:09:07.128Z,88.76
2023-02-27T03:11:39.046Z,88.75
2023-02-27T03:14:14.602Z,89.34
2023-02-27T03:16:44.262Z,89.46
2023-02-27T03:19:18.134Z,89.37
2023-02-27T03:22:00.412Z,88.97
2023-02-27T03:24:33.246Z,88.17
2023-02-27T03:27:01.683Z,88.32
2023-02-27T03:29:37.471Z,88.91
2023-02-27T03:32:12.436Z,89.50
2023-02-27T03:34:41.681Z,89.18
2023-02-27T03:37:26.417Z,89.67
2023-02-27T03:40:11.229Z,90.09
2023-02-27T03:42:47.795Z,90.54
2023-02-27T03:45:24.292Z,90.06
2023-02-27T03:47:51.441Z,90.35
2023-02-27T03:50:18.180Z,89.95
2023-02-27T03:52:45.644Z,90.27
2023-02-27T03:55:18.243Z,90.54
2023-02-27T03:57:47.536Z,90.63
2023-02-27T04:00:17.714Z,90.20
2023-02-27T04:02:46.343Z,90.15
2023-02-27T04:05:13.026Z,89.70
2023-02-27T04:08:18.078Z,89.56
2023-02-27T04:11:15.122Z,90.38
2023-02-27T04:14:00.246Z,90.33
2023-02-27T04:16:39.786Z,90.74
2023-02-27T04:19:29.118Z,90.56
2023-02-27T04:22:20.618Z,90.34
2023-02-27T04:25:26.718Z,90.95
2023-02-27T04:28:15.688Z,91.69
2023-02-27T04:30:55.874Z,90.97
2023-02-27T04:33:35.035Z,90.66
2023-02-27T04:36:28.950Z,90.57
2023-02-27T04:39:03.245Z,90.99
2023-02-27T04:41:37.612Z,90.93
2023-02-27T04:44:07.276Z,90.70
2023-02-27T04:46:36.196Z,90.94
2023-02-27T04:49:12.262Z,90.82
2023-02-27T04:51:47.925Z,91.71
2023-02-27T04:54:18.349Z,91.15
2023-02-27T04:56:51.318Z,91.55
2023-02-27T04:59:23.550Z,92.09
2023-02-27T05:02:15.716Z,91.92
2023-02-27T05:04:44.797Z,92.09
2023-02-27T05:07:18.323Z,92.16
2023-02-27T05:09:52.474Z,92.20
2023-02-27T05:12:40.542Z,91.44
2023-02-27T05:15:24.016Z,91.10
2023-02-27T05:17:59.330Z,91.59
2023-02-27T05:20:33.020Z,91.54
2023-02-27T05:23:19.185Z,91.28
2023-02-27T05:25:54.471Z,91.17
2023-02-27T05:28:32.944Z,91.00
2023-02-27T05:31:03.607Z,91.29
2023-02-27T05:33:50.710Z,91.63
2023-02-27T05:36:28.783Z,91.52
2023-02-27T05:38:59.674Z,91.80
2023-02-27T05:41:31.487Z,91.77
2023-02-27T05:44:03.671Z,91.81
2023-02-27T05:46:35.744Z,92.11
2023-02-27T05:49:10.381Z,91.98
2023-02-27T05:51:40.576Z,91.92
2023-02-27T05:54:13.541Z,92.06
2023-02-27T05:56:43.689Z,92.48
2023-02-27T05:59:18.058Z,92.01
2023-02-27T06:01:46.393Z,91.77
2023-02-27T06:04:13.125Z,91.89
2023-02-27T06:06:39.936Z,92.15
2023-02-27T06:09:06.292Z,92.04
2023-02-27T06:11:32.617Z,92.38
2023-02-27T06:13:59.006Z,91.96
2023-02-27T06:16:25.566Z,91.62
2023-02-27T06:18:52.075Z,92.41
2023-02-27T06:21:18.751Z,92.10
2023-02-27T06:23:45.046Z,91.48
2023-02-27T06:26:11.526Z,91.83
2023-02-27T06:28:37.902Z,92.19
2023-02-27T06:31:04.425Z,91.68
2023-02-27T06:33:30.776Z,91.52
2023-02-27T06:35:57.186Z,91.58
2023-02-27T06:38:23.645Z,92.01
2023-02-27T06:40:51.358Z,91.54
2023-02-27T06:43:17.782Z,91.44
2023-02-27T06:45:44.099Z,92.19
2023-02-27T06:48:10.431Z,91.90
2023-02-27T06:50:36.777Z,92.29
2023-02-27T06:53:03.090Z,91.76
2023-02-27T06:55:29.396Z,91.42
2023-02-27T06:57:55.819Z,91.06
2023-02-27T07:00:22.594Z,91.21
2023-02-27T07:02:48.998Z,90.43
2023-02-27T07:05:15.502Z,91.21
2023-02-27T07:07:42.111Z,90.77
2023-02-27T07:10:11.945Z,89.75
2023-02-27T07:12:39.850Z,87.80
2023-02-27T07:15:07.731Z,88.12
2023-02-27T07:17:34.279Z,86.99
2023-02-27T07:20:00.608Z,87.95
2023-02-27T07:22:27.077Z,87.00
2023-02-27T07:24:53.396Z,86.66
2023-02-27T07:27:22.381Z,85.94
2023-02-27T07:29:48.806Z,84.28
2023-02-27T07:32:17.765Z,83.59
2023-02-27T07:34:44.349Z,83.34
2023-02-27T07:37:11.194Z,82.61
2023-02-27T07:39:38.753Z,81.62
2023-02-27T07:42:05.541Z,80.89
2023-02-27T07:44:31.961Z,79.60
2023-02-27T07:46:58.636Z,79.25
2023-02-27T07:49:25.128Z,79.14
2023-02-27T07:51:51.498Z,78.36
2023-02-27T07:54:17.946Z,77.39
2023-02-27T07:56:44.336Z,76.25
2023-02-27T07:59:10.813Z,75.64
2023-02-27T08:01:37.352Z,72.84
2023-02-27T08:04:03.837Z,74.13
2023-02-27T08:06:30.534Z,73.46
2023-02-27T08:08:57.041Z,73.21
2023-02-27T08:11:23.820Z,70.71
2023-02-27T08:14:05.677Z,69.91
2023-02-27T08:16:32.662Z,68.80
2023-02-27T08:19:00.537Z,69.28
2023-02-27T08:21:27.906Z,68.60
2023-02-27T08:23:54.733Z,66.90
2023-02-27T08:26:21.473Z,66.09
2023-02-27T08:28:48.309Z,64.75
2023-02-27T08:31:14.871Z,64.14
2023-02-27T08:33:41.381Z,64.54
2023-02-27T08:36:08.169Z,63.88
2023-02-27T08:38:34.674Z,63.12
2023-02-27T08:41:01.120Z,63.63
2023-02-27T08:43:27.560Z,62.60
2023-02-27T08:45:53.963Z,60.17
2023-02-27T08:48:20.417Z,61.54
2023-02-27T08:50:47.497Z,59.72
2023-02-27T08:53:14.393Z,59.57
2023-02-27T08:55:40.771Z,58.91
2023-02-27T08:58:07.296Z,59.17
2023-02-27T09:00:33.910Z,57.61
2023-02-27T09:03:00.633Z,56.10
2023-02-27T09:05:27.931Z,54.88
2023-02-27T09:07:54.358Z,55.43
2023-02-27T09:10:21.305Z,54.91
2023-02-27T09:12:47.690Z,53.00
2023-02-27T09:15:14.042Z,53.12
2023-02-27T09:17:40.359Z,54.24
2023-02-27T09:20:09.580Z,53.01
2023-02-27T09:22:36.372Z,53.53
2023-02-27T09:25:02.829Z,52.46
2023-02-27T09:27:29.190Z,50.58
2023-02-27T09:29:55.612Z,49.84
2023-02-27T09:32:26.284Z,49.77
2023-02-27T09:34:52.992Z,49.76
2023-02-27T09:37:19.642Z,48.81
2023-02-27T09:39:46.525Z,49.42
2023-02-27T09:42:20.694Z,48.49
2023-02-27T09:44:53.599Z,47.00
2023-02-27T09:47:29.254Z,45.93
2023-02-27T09:50:08.427Z,44.49
2023-02-27T09:52:36.784Z,46.63
2023-02-27T09:55:11.644Z,44.38
2023-02-27T09:57:44.482Z,44.19
2023-02-27T10:00:36.878Z,45.54
2023-02-27T10:03:22.048Z,44.32
2023-02-27T10:06:09.560Z,43.64
2023-02-27T10:08:46.027Z,40.48
2023-02-27T10:11:15.192Z,39.63
2023-02-27T10:14:13.918Z,40.27
2023-02-27T10:16:42.213Z,40.70
2023-02-27T10:19:16.866Z,39.45
2023-02-27T10:21:48.826Z,39.53
2023-02-27T10:24:36.962Z,39.09
2023-02-27T10:27:06.385Z,37.44
2023-02-27T10:29:36.256Z,40.68
2023-02-27T10:32:07.724Z,39.65
2023-02-27T10:34:35.330Z,39.73
2023-02-27T10:37:04.662Z,40.45
2023-02-27T10:39:40.793Z,42.65
2023-02-27T10:42:12.208Z,42.88
2023-02-27T10:44:38.580Z,44.32
2023-02-27T10:47:05.078Z,44.37
2023-02-27T10:49:33.658Z,45.99
2023-02-27T10:52:08.211Z,45.32
2023-02-27T10:54:34.918Z,46.55
2023-02-27T10:57:02.998Z,45.82
2023-02-27T10:59:33.189Z,45.88
2023-02-27T11:02:03.041Z,46.85
2023-02-27T11:04:33.819Z,45.12
2023-02-27T11:07:03.092Z,43.18
2023-02-27T11:09:32.279Z,41.60
2023-02-27T11:12:29.347Z,41.53
2023-02-27T11:15:01.806Z,38.56
2023-02-27T11:17:31.426Z,36.44
2023-02-27T11:19:59.414Z,36.46
2023-02-27T11:22:28.960Z,33.98
2023-02-27T11:25:23.095Z,31.97
2023-02-27T11:27:50.203Z,32.19
2023-02-27T11:30:23.951Z,33.79
2023-02-27T11:32:50.930Z,33.71
2023-02-27T11:35:33.118Z,31.46
2023-02-27T11:38:06.472Z,32.82
2023-02-27T11:40:36.647Z,33.96
2023-02-27T11:43:16.976Z,33.84
2023-02-27T11:46:11.975Z,31.49
2023-02-27T11:48:39.916Z,29.01
2023-02-27T11:51:15.039Z,28.60
2023-02-27T11:53:44.539Z,29.98
2023-02-27T11:56:16.621Z,31.16
2023-02-27T11:58:57.127Z,29.15
2023-02-27T12:01:29.702Z,29.30
2023-02-27T12:04:16.636Z,28.66
2023-02-27T12:06:55.541Z,28.43
2023-02-27T12:09:38.476Z,28.80
2023-02-27T12:12:15.550Z,27.02
2023-02-27T12:14:48.862Z,26.93
2023-02-27T12:17:23.103Z,27.39
2023-02-27T12:20:04.381Z,28.36
2023-02-27T12:22:37.914Z,28.70
2023-02-27T12:25:11.990Z,25.89
2023-02-27T12:27:54.177Z,28.73
2023-02-27T12:30:29.124Z,29.53
2023-02-27T12:33:29.503Z,27.89
2023-02-27T12:36:01.228Z,26.47
2023-02-27T12:38:27.789Z,27.60
2023-02-27T12:41:19.049Z,25.40
2023-02-27T12:44:27.854Z,25.20
2023-02-27T12:47:06.279Z,28.66
2023-02-27T12:50:02.749Z,30.75
2023-02-27T12:52:52.729Z,31.75
2023-02-27T12:55:25.989Z,32.66
2023-02-27T12:58:24.867Z,34.90
2023-02-27T13:01:08.079Z,34.73
2023-02-27T13:03:40.535Z,37.44
2023-02-27T13:06:19.274Z,38.26
2023-02-27T13:09:14.942Z,38.69
2023-02-27T13:12:00.558Z,40.23
2023-02-27T13:14:32.753Z,40.87
2023-02-27T13:17:23.465Z,37.39
2023-02-27T13:20:02.507Z,36.22
2023-02-27T13:22:38.656Z,38.00
2023-02-27T13:25:13.199Z,41.89
2023-02-27T13:27:45.081Z,39.62
2023-02-27T13:30:21.633Z,35.95
2023-02-27T13:33:06.378Z,31.98
2023-02-27T13:35:58.664Z,30.47
2023-02-27T13:38:45.297Z,31.51
2023-02-27T13:41:21.038Z,35.20
2023-02-27T13:43:52.454Z,39.29
2023-02-27T13:46:26.514Z,40.45
2023-02-27T13:49:28.728Z,42.33
2023-02-27T13:51:56.972Z,43.36
2023-02-27T13:54:29.332Z,43.51
2023-02-27T13:56:55.737Z,44.24
2023-02-27T13:59:35.503Z,39.71
2023-02-27T14:02:10.997Z,37.86
2023-02-27T14:04:48.365Z,34.83
2023-02-27T14:07:18.176Z,34.23
2023-02-27T14:09:46.568Z,35.77
2023-02-27T14:12:46.735Z,34.93
2023-02-27T14:15:15.928Z,37.41
2023-02-27T14:17:44.475Z,38.84
2023-02-27T14:20:10.813Z,39.67
2023-02-27T14:23:00.308Z,36.72
2023-02-27T14:25:33.066Z,34.08
2023-02-27T14:28:00.398Z,32.30
2023-02-27T14:30:34.394Z,34.37
2023-02-27T14:33:08.182Z,33.92
2023-02-27T14:35:36.007Z,30.77
2023-02-27T14:38:09.625Z,30.27
2023-02-27T14:40:43.062Z,29.46
2023-02-27T14:43:27.849Z,28.81
2023-02-27T14:45:54.949Z,27.98
2023-02-27T14:48:27.552Z,28.40
2023-02-27T14:50:54.441Z,28.99
2023-02-27T14:53:23.963Z,29.54
2023-02-27T14:55:55.838Z,31.24
2023-02-27T14:58:23.622Z,33.75
2023-02-27T15:00:56.112Z,36.24
2023-02-27T15:03:25.844Z,39.01
2023-02-27T15:05:57.592Z,41.13
2023-02-27T15:08:28.257Z,41.18
2023-02-27T15:10:57.061Z,38.77
2023-02-27T15:13:36.312Z,35.45
2023-02-27T15:16:41.500Z,34.48
2023-02-27T15:19:16.366Z,32.98
2023-02-27T15:21:49.058Z,32.45
2023-02-27T15:24:26.296Z,32.10
2023-02-27T15:27:02.094Z,30.64
2023-02-27T15:29:55.729Z,28.95
2023-02-27T15:32:33.006Z,30.16
2023-02-27T15:35:12.072Z,31.72
2023-02-27T15:37:39.038Z,34.35
2023-02-27T15:40:15.007Z,36.43
2023-02-27T15:42:41.628Z,38.51
2023-02-27T15:45:10.810Z,41.93
2023-02-27T15:47:39.070Z,43.84
2023-02-27T15:50:08.515Z,44.47
2023-02-27T15:52:43.294Z,45.70
2023-02-27T15:55:15.512Z,46.58
2023-02-27T15:57:56.538Z,43.71
2023-02-27T16:00:31.815Z,39.19
2023-02-27T16:02:59.427Z,35.21
2023-02-27T16:05:44.173Z,34.43
2023-02-27T16:08:18.265Z,33.25
2023-02-27T16:10:46.364Z,32.14
2023-02-27T16:13:25.326Z,31.84
2023-02-27T16:16:06.230Z,31.53
2023-02-27T16:18:36.454Z,33.76
2023-02-27T16:21:12.921Z,34.34
2023-02-27T16:23:39.589Z,32.71
2023-02-27T16:26:27.203Z,34.40
2023-02-27T16:29:06.553Z,37.04
2023-02-27T16:31:34.705Z,37.91
2023-02-27T16:34:13.066Z,40.46
2023-02-27T16:36:52.463Z,43.96
2023-02-27T16:39:19.206Z,44.60
2023-02-27T16:41:45.724Z,45.52
2023-02-27T16:44:12.474Z,46.96
2023-02-27T16:46:38.989Z,48.15
2023-02-27T16:49:19.139Z,48.08
2023-02-27T16:51:47.818Z,48.09
2023-02-27T16:54:17.076Z,49.28
2023-02-27T16:56:45.203Z,50.52
2023-02-27T16:59:20.467Z,51.36
2023-02-27T17:01:46.807Z,52.06
2023-02-27T17:04:24.934Z,52.11
2023-02-27T17:06:52.367Z,51.79
2023-02-27T17:09:19.316Z,53.60
2023-02-27T17:11:46.097Z,52.65
2023-02-27T17:14:12.818Z,53.45
2023-02-27T17:16:39.382Z,55.13
2023-02-27T17:19:05.759Z,54.72
2023-02-27T17:21:32.803Z,54.76
2023-02-27T17:23:59.422Z,55.43
2023-02-27T17:26:26.148Z,55.08
2023-02-27T17:28:53.518Z,55.98
2023-02-27T17:31:19.908Z,56.61
2023-02-27T17:33:46.213Z,56.77
2023-02-27T17:36:13.733Z,57.42
2023-02-27T17:38:40.084Z,56.58
2023-02-27T17:41:12.346Z,59.08
2023-02-27T17:43:39.816Z,56.74
2023-02-27T17:46:08.075Z,57.43
2023-02-27T17:48:35.542Z,58.28
2023-02-27T17:51:11.452Z,60.46
2023-02-27T17:53:39.568Z,60.31
2023-02-27T17:56:06.651Z,59.83
2023-02-27T17:58:33.313Z,60.09
2023-02-27T18:01:15.485Z,61.04
2023-02-27T18:03:42.397Z,62.20
2023-02-27T18:06:08.777Z,61.43
2023-02-27T18:08:36.313Z,61.13
2023-02-27T18:11:02.889Z,61.98
2023-02-27T18:13:30.037Z,62.91
2023-02-27T18:15:56.727Z,62.95
2023-02-27T18:18:23.595Z,63.66
2023-02-27T18:21:01.111Z,64.31
2023-02-27T18:23:27.661Z,63.60
2023-02-27T18:25:56.686Z,66.04
2023-02-27T18:28:24.104Z,64.99
2023-02-27T18:30:50.550Z,65.10
2023-02-27T18:33:17.345Z,65.80
2023-02-27T18:35:43.898Z,67.35
2023-02-27T18:38:10.628Z,65.64
2023-02-27T18:40:39.930Z,66.51
2023-02-27T18:43:06.479Z,66.29
2023-02-27T18:45:33.304Z,67.68
2023-02-27T18:47:59.736Z,67.22
2023-02-27T18:50:27.254Z,68.71
2023-02-27T18:52:53.792Z,69.95
2023-02-27T18:55:20.288Z,70.44
2023-02-27T18:57:46.637Z,71.08
2023-02-27T19:00:13.943Z,71.02
2023-02-27T19:02:41.458Z,72.08
2023-02-27T19:05:09.238Z,72.58
2023-02-27T19:07:35.616Z,70.91
2023-02-27T19:10:01.979Z,71.66
2023-02-27T19:12:28.340Z,72.36
2023-02-27T19:14:54.846Z,71.34
2023-02-27T19:17:21.350Z,72.41
2023-02-27T19:19:47.691Z,72.11
2023-02-27T19:22:14.120Z,72.14
2023-02-27T19:24:41.649Z,73.67
2023-02-27T19:27:08.178Z,73.71
2023-02-27T19:29:34.566Z,73.78
2023-02-27T19:32:01.008Z,73.83
2023-02-27T19:34:27.766Z,74.94
2023-02-27T19:36:54.360Z,73.28
2023-02-27T19:39:20.719Z,74.29
2023-02-27T19:41:47.111Z,74.73
2023-02-27T19:44:13.444Z,73.70
2023-02-27T19:46:42.101Z,73.27
2023-02-27T19:49:08.459Z,73.73
2023-02-27T19:51:34.947Z,74.59
2023-02-27T19:54:01.364Z,74.44
2023-02-27T19:56:28.708Z,73.49
2023-02-27T19:58:55.543Z,72.88
2023-02-27T20:01:28.288Z,73.25
2023-02-27T20:03:55.923Z,72.41
2023-02-27T20:06:24.645Z,73.15
2023-02-27T20:08:52.244Z,72.78
2023-02-27T20:11:19.273Z,72.19
2023-02-27T20:13:46.855Z,72.62
2023-02-27T20:16:15.287Z,71.99
2023-02-27T20:18:42.227Z,71.92
2023-02-27T20:21:19.982Z,73.14
2023-02-27T20:23:47.141Z,72.86
2023-02-27T20:26:26.845Z,72.58
2023-02-27T20:28:55.570Z,73.32
2023-02-27T20:31:24.576Z,73.44
2023-02-27T20:33:51.831Z,72.49
2023-02-27T20:36:18.276Z,72.79
2023-02-27T20:38:45.065Z,73.22
2023-02-27T20:41:14.056Z,73.21
2023-02-27T20:43:40.710Z,74.27
2023-02-27T20:46:09.732Z,74.61
2023-02-27T20:48:36.091Z,74.76
2023-02-27T20:51:11.575Z,73.91
2023-02-27T20:53:40.512Z,75.68
2023-02-27T20:56:08.225Z,75.53
2023-02-27T20:58:35.052Z,75.61
2023-02-27T21:01:01.420Z,75.75
2023-02-27T21:03:31.266Z,75.92
2023-02-27T21:06:02.763Z,76.52
2023-02-27T21:08:29.300Z,77.33
2023-02-27T21:10:55.661Z,77.30
2023-02-27T21:13:22.074Z,78.13
2023-02-27T21:15:49.930Z,78.30
2023-02-27T21:18:16.739Z,78.20
2023-02-27T21:20:44.279Z,79.09
2023-02-27T21:23:10.793Z,78.70
2023-02-27T21:25:42.355Z,78.84
2023-02-27T21:28:09.249Z,78.68
2023-02-27T21:30:36.230Z,78.59
2023-02-27T21:33:04.523Z,78.92
2023-02-27T21:35:31.281Z,79.33
2023-02-27T21:37:57.644Z,80.07
2023-02-27T21:40:24.292Z,80.16
2023-02-27T21:42:50.689Z,80.55
2023-02-27T21:45:17.240Z,80.44
2023-02-27T21:47:43.655Z,79.81
2023-02-27T21:50:11.180Z,80.63
2023-02-27T21:52:37.549Z,80.56
2023-02-27T21:55:04.357Z,81.59
2023-02-27T21:57:30.733Z,82.34
2023-02-27T21:59:57.073Z,81.88
2023-02-27T22:02:23.479Z,82.11
2023-02-27T22:04:50.042Z,82.66
2023-02-27T22:07:16.548Z,82.31
2023-02-27T22:09:42.982Z,82.45
2023-02-27T22:12:09.380Z,83.11
2023-02-27T22:14:36.034Z,82.63
2023-02-27T22:17:02.535Z,82.90
2023-02-27T22:19:28.869Z,83.35
2023-02-27T22:21:55.233Z,84.37
2023-02-27T22:24:21.786Z,83.91
2023-02-27T22:26:48.562Z,83.75
2023-02-27T22:29:15.325Z,83.78
2023-02-27T22:31:41.910Z,84.40
2023-02-27T22:34:12.404Z,84.88
2023-02-27T22:36:39.642Z,84.83
2023-02-27T22:39:06.359Z,85.32
2023-02-27T22:41:36.253Z,84.38
2023-02-27T22:44:03.163Z,85.55
2023-02-27T22:46:38.327Z,85.31
2023-02-27T22:49:08.522Z,85.62
2023-02-27T22:51:35.636Z,84.90
2023-02-27T22:54:04.791Z,84.77
2023-02-27T22:56:32.401Z,84.81
2023-02-27T22:58:59.173Z,85.54
2023-02-27T23:01:27.985Z,86.24
2023-02-27T23:03:57.482Z,85.78
2023-02-27T23:06:26.616Z,86.54
2023-02-27T23:08:53.243Z,86.46
2023-02-27T23:11:20.719Z,87.08
2023-02-27T23:13:47.667Z,86.10
2023-02-27T23:16:14.783Z,85.98
2023-02-27T23:18:46.579Z,86.31
2023-02-27T23:21:15.639Z,87.01
2023-02-27T23:23:42.279Z,87.30
2023-02-27T23:26:09.212Z,87.66
2023-02-27T23:28:36.720Z,87.22
2023-02-27T23:31:05.184Z,87.03
2023-02-27T23:33:32.382Z,86.80
2023-02-27T23:35:58.815Z,86.66
2023-02-27T23:38:25.872Z,85.95
2023-02-27T23:40:52.894Z,86.18
2023-02-27T23:43:19.638Z,86.69
2023-02-27T23:45:46.153Z,86.31
2023-02-27T23:48:12.689Z,87.12
2023-02-27T23:50:41.940Z,86.55
2023-02-27T23:53:08.487Z,86.40
2023-02-27T23:55:36.490Z,86.65
2023-02-27T23:58:06.374Z,87.31
